Time;durP1;ratioP1;P1;durP2;ratioP2;P2;SDS_P1;SDS_P2;PMS_P1;PMS_P2;Temp;Humidity;BMP_temperature;BMP_pressure;BME280_temperature;BME280_humidity;BME280_pressure;Samples;Min_cycle;Max_cycle;Signal;HPM_P1;HPM_P2
2023/02/17 00:01:21;;;;;;;5.45;4.18;;;7.40;99.90;;;;;;5055753;28;20431;-56
2023/02/17 00:03:49;;;;;;;5.25;4.00;;;7.40;99.90;;;;;;5057266;28;20029;-57
2023/02/17 00:06:17;;;;;;;6.30;4.32;;;7.40;99.90;;;;;;5060016;28;20044;-61
2023/02/17 00:08:43;;;;;;;6.28;4.65;;;7.40;99.90;;;;;;5054678;28;20539;-61
2023/02/17 00:11:09;;;;;;;5.93;4.50;;;7.40;99.90;;;;;;5058741;28;20106;-60
2023/02/17 00:13:35;;;;;;;7.40;4.60;;;7.40;99.90;;;;;;5058284;28;20443;-60
2023/02/17 00:16:18;;;;;;;5.85;4.22;;;7.40;99.90;;;;;;5059749;28;20083;-61
2023/02/17 00:18:44;;;;;;;6.50;4.40;;;7.40;99.90;;;;;;5045253;28;20488;-59
2023/02/17 00:21:14;;;;;;;;;;;7.40;99.90;;;;;;5047010;28;20083;-61
2023/02/17 00:23:40;;;;;;;5.60;3.65;;;7.40;99.90;;;;;;5044733;28;20369;-56
2023/02/17 00:26:06;;;;;;;5.95;3.75;;;7.30;99.90;;;;;;5046031;28;20080;-59
2023/02/17 00:28:32;;;;;;;6.45;4.53;;;7.30;99.90;;;;;;5044989;28;20043;-60
2023/02/17 00:30:58;;;;;;;;;;;7.30;99.90;;;;;;5046961;28;20033;-58
2023/02/17 00:33:23;;;;;;;6.25;4.82;;;7.30;99.90;;;;;;5044031;28;19999;-61
2023/02/17 00:35:49;;;;;;;;;;;7.30;99.90;;;;;;5046552;28;20456;-60
2023/02/17 00:38:14;;;;;;;5.05;4.15;;;7.30;99.90;;;;;;5045720;28;20360;-58
2023/02/17 00:40:41;;;;;;;5.78;4.38;;;7.30;99.90;;;;;;5047450;28;20040;-58
2023/02/17 00:43:06;;;;;;;5.75;4.35;;;7.30;99.90;;;;;;5045790;28;20520;-60
2023/02/17 00:45:32;;;;;;;8.27;4.10;;;7.30;99.90;;;;;;5044806;28;20044;-60
2023/02/17 00:47:58;;;;;;;;;;;7.20;99.90;;;;;;5045825;28;20068;-59
2023/02/17 00:50:23;;;;;;;5.28;3.78;;;7.30;99.90;;;;;;5043592;28;19959;-60
2023/02/17 00:52:49;;;;;;;;;;;7.30;99.90;;;;;;5045781;28;20036;-60
2023/02/17 00:55:14;;;;;;;5.65;4.25;;;7.30;99.90;;;;;;5044172;28;19920;-61
2023/02/17 00:57:40;;;;;;;6.53;4.50;;;7.30;99.90;;;;;;5046534;28;20044;-59
2023/02/17 01:00:06;;;;;;;8.35;5.82;;;7.30;99.90;;;;;;5043817;28;20540;-60
2023/02/17 01:02:32;;;;;;;8.18;5.90;;;7.30;99.90;;;;;;5046097;28;20043;-58
2023/02/17 01:04:57;;;;;;;;;;;7.30;99.90;;;;;;5058101;28;20040;-60
2023/02/17 01:07:23;;;;;;;8.70;6.22;;;7.40;99.90;;;;;;5046593;28;19927;-57
2023/02/17 01:09:49;;;;;;;;;;;7.30;99.90;;;;;;5044141;28;20667;-59
2023/02/17 01:12:14;;;;;;;9.93;6.85;;;7.30;99.90;;;;;;5048068;28;19928;-56
2023/02/17 01:14:40;;;;;;;9.90;6.88;;;7.30;99.90;;;;;;5042974;28;20037;-59
2023/02/17 01:17:06;;;;;;;11.77;7.78;;;7.30;99.90;;;;;;5046235;28;20803;-58
2023/02/17 01:19:31;;;;;;;;;;;7.30;99.90;;;;;;5043726;28;20129;-57
2023/02/17 01:21:57;;;;;;;12.52;8.13;;;7.30;99.90;;;;;;5045785;28;19917;-60
2023/02/17 01:24:22;;;;;;;;;;;7.30;99.90;;;;;;5044593;28;20045;-57
2023/02/17 01:26:48;;;;;;;12.10;8.48;;;7.30;99.90;;;;;;5048052;28;19928;-59
2023/02/17 01:29:13;;;;;;;15.85;9.80;;;7.30;99.90;;;;;;5044028;28;20036;-59
2023/02/17 01:31:39;;;;;;;15.68;9.32;;;7.40;99.90;;;;;;5045549;28;20044;-61
2023/02/17 01:34:05;;;;;;;12.98;9.05;;;7.30;99.90;;;;;;5044349;28;20094;-59
2023/02/17 01:36:30;;;;;;;;;;;7.40;99.90;;;;;;5045862;28;20037;-60
2023/02/17 01:38:56;;;;;;;13.88;9.20;;;7.40;99.90;;;;;;5044284;28;19916;-60
2023/02/17 01:41:25;;;;;;;17.23;10.07;;;7.40;99.90;;;;;;5045302;28;20037;-59
2023/02/17 01:44:09;;;;;;;14.10;9.43;;;7.50;99.90;;;;;;5042020;28;20029;-60
2023/02/17 01:46:36;;;;;;;15.40;9.63;;;7.40;99.90;;;;;;5043264;28;20131;-59
2023/02/17 01:49:39;;;;;;;14.23;9.55;;;7.50;99.90;;;;;;5043431;28;20493;-57
2023/02/17 01:52:11;;;;;;;14.32;9.73;;;7.50;99.90;;;;;;5041863;28;20136;-59
2023/02/17 01:54:54;;;;;;;14.60;8.88;;;7.50;99.90;;;;;;5039808;28;20037;-60
2023/02/17 01:57:23;;;;;;;14.10;9.38;;;7.50;99.90;;;;;;5046199;28;20048;-59
2023/02/17 01:59:49;;;;;;;18.92;10.63;;;7.50;99.90;;;;;;5041887;28;20041;-59
2023/02/17 02:02:15;;;;;;;14.68;10.23;;;7.50;99.90;;;;;;5047417;28;20041;-59
2023/02/17 02:04:43;;;;;;;;;;;7.50;99.90;;;;;;5042256;28;20041;-59
2023/02/17 02:07:20;;;;;;;15.65;9.75;;;7.50;99.90;;;;;;5045212;28;19928;-60
2023/02/17 02:09:51;;;;;;;15.63;10.40;;;7.50;99.90;;;;;;5042428;28;20037;-61
2023/02/17 02:12:24;;;;;;;16.17;11.20;;;7.50;99.90;;;;;;5044158;28;20032;-59
2023/02/17 02:14:50;;;;;;;14.52;9.27;;;7.50;99.90;;;;;;5040398;28;20033;-59
2023/02/17 02:17:35;;;;;;;16.15;9.02;;;7.50;99.90;;;;;;5045980;28;20049;-60
2023/02/17 02:20:31;;;;;;;13.68;9.82;;;7.60;99.90;;;;;;5040946;28;20544;-61
2023/02/17 02:23:05;;;;;;;15.82;9.70;;;7.50;99.90;;;;;;5042145;28;20059;-59
2023/02/17 02:25:53;;;;;;;15.15;9.27;;;7.60;99.90;;;;;;5043643;28;20047;-61
2023/02/17 02:28:46;;;;;;;12.93;8.68;;;7.50;99.90;;;;;;5041587;28;20041;-59
2023/02/17 02:31:14;;;;;;;13.40;9.43;;;7.60;99.90;;;;;;5043433;28;20037;-60
2023/02/17 02:33:50;;;;;;;14.70;8.80;;;7.60;99.90;;;;;;5042434;28;20267;-61
2023/02/17 02:36:28;;;;;;;13.35;9.05;;;7.70;99.90;;;;;;5044506;28;20041;-56
2023/02/17 02:39:01;;;;;;;13.68;9.23;;;7.60;99.90;;;;;;5043437;28;20167;-57
2023/02/17 02:41:36;;;;;;;12.45;8.68;;;7.60;99.90;;;;;;5043585;28;20041;-59
2023/02/17 02:44:08;;;;;;;14.80;8.70;;;7.60;99.90;;;;;;5042389;28;20032;-60
2023/02/17 02:46:34;;;;;;;12.75;8.57;;;7.70;99.90;;;;;;5043866;28;20037;-59
2023/02/17 02:49:00;;;;;;;;;;;7.60;99.90;;;;;;5043160;28;20045;-60
2023/02/17 02:51:54;;;;;;;12.43;8.87;;;7.60;99.90;;;;;;5043531;28;19917;-60
2023/02/17 02:54:40;;;;;;;14.48;8.98;;;7.60;99.90;;;;;;5041498;28;20041;-55
2023/02/17 02:57:34;;;;;;;14.10;8.70;;;7.60;99.90;;;;;;5041812;28;20045;-59
2023/02/17 03:00:24;;;;;;;16.08;9.82;;;7.60;99.90;;;;;;5037090;28;20059;-60
2023/02/17 03:03:11;;;;;;;14.30;9.65;;;7.60;99.90;;;;;;5040985;28;20047;-56
2023/02/17 03:06:02;;;;;;;13.65;8.63;;;7.60;99.90;;;;;;5042080;28;20072;-60
2023/02/17 03:08:39;;;;;;;13.25;9.15;;;7.60;99.90;;;;;;5037792;28;20042;-60
2023/02/17 03:11:04;;;;;;;11.50;8.10;;;7.60;99.90;;;;;;5056227;28;20040;-59
2023/02/17 03:13:32;;;;;;;;;;;7.60;99.90;;;;;;5042406;28;20103;-59
2023/02/17 03:15:57;;;;;;;14.23;9.13;;;7.60;99.90;;;;;;5042276;28;20407;-60
2023/02/17 03:18:23;;;;;;;;;;;7.60;99.90;;;;;;5042639;28;20041;-60
2023/02/17 03:20:55;;;;;;;14.18;9.00;;;7.60;99.90;;;;;;5043856;28;19924;-59
2023/02/17 03:23:21;;;;;;;12.30;8.40;;;7.70;99.90;;;;;;5040787;28;20255;-59
2023/02/17 03:25:46;;;;;;;;;;;7.60;99.90;;;;;;5043292;28;20667;-60
2023/02/17 03:28:13;;;;;;;14.63;9.32;;;7.70;99.90;;;;;;5042524;28;20431;-58
2023/02/17 03:30:39;;;;;;;12.95;9.07;;;7.70;99.90;;;;;;5042353;28;20052;-61
2023/02/17 03:33:05;;;;;;;16.40;9.63;;;7.70;99.90;;;;;;5041977;28;20144;-59
2023/02/17 03:35:30;;;;;;;;;;;7.70;99.90;;;;;;5042826;28;20123;-61
2023/02/17 03:37:56;;;;;;;13.70;9.93;;;7.70;99.90;;;;;;5042426;28;19991;-60
2023/02/17 03:40:21;;;;;;;15.63;9.52;;;7.70;99.90;;;;;;5041528;28;20044;-60
2023/02/17 03:42:47;;;;;;;;;;;7.70;99.90;;;;;;5043528;28;20037;-59
2023/02/17 03:45:13;;;;;;;15.63;10.90;;;7.70;99.90;;;;;;5040126;28;19931;-60
2023/02/17 03:47:38;;;;;;;15.90;10.18;;;7.70;99.90;;;;;;5042379;28;20342;-59
2023/02/17 03:50:05;;;;;;;13.30;9.43;;;7.70;99.90;;;;;;5039610;28;20484;-59
2023/02/17 03:52:30;;;;;;;10.90;8.60;;;7.80;99.90;;;;;;5041055;28;20066;-60
2023/02/17 03:54:56;;;;;;;;;;;7.80;99.90;;;;;;5042601;28;20037;-57
2023/02/17 03:57:21;;;;;;;16.90;10.25;;;7.80;99.90;;;;;;5047883;28;19982;-61
2023/02/17 03:59:47;;;;;;;;;;;7.80;99.90;;;;;;5044924;28;20758;-60
2023/02/17 04:02:12;;;;;;;18.52;11.43;;;7.80;99.90;;;;;;5046869;28;19928;-60
2023/02/17 04:04:38;;;;;;;;;;;7.80;99.90;;;;;;5044308;28;20497;-61
2023/02/17 04:07:04;;;;;;;20.30;13.05;;;7.80;99.90;;;;;;5047408;28;19925;-60
2023/02/17 04:09:29;;;;;;;;;;;7.80;99.90;;;;;;5044476;28;20054;-61
2023/02/17 04:11:55;;;;;;;20.67;12.18;;;7.80;99.90;;;;;;5046430;28;19924;-61
2023/02/17 04:14:20;;;;;;;19.92;12.70;;;7.80;99.90;;;;;;5045001;28;20029;-60
2023/02/17 04:16:46;;;;;;;;;;;7.80;99.90;;;;;;5046177;28;20044;-59
2023/02/17 04:19:12;;;;;;;20.48;13.15;;;7.90;99.90;;;;;;5046139;28;20373;-61
2023/02/17 04:21:37;;;;;;;18.90;12.82;;;7.80;99.90;;;;;;5046512;28;20385;-59
2023/02/17 04:24:03;;;;;;;19.42;12.15;;;7.90;99.90;;;;;;5044749;28;20822;-60
2023/02/17 04:26:29;;;;;;;20.77;13.20;;;7.90;99.90;;;;;;5046444;28;20040;-60
2023/02/17 04:28:55;;;;;;;;;;;7.90;99.90;;;;;;5045803;28;20557;-60
2023/02/17 04:31:20;;;;;;;17.98;12.35;;;7.90;99.90;;;;;;5044863;28;20414;-61
2023/02/17 04:33:46;;;;;;;;;;;7.90;99.90;;;;;;5043224;28;20155;-61
2023/02/17 04:36:11;;;;;;;19.60;11.95;;;7.90;99.90;;;;;;5046395;28;19974;-59
2023/02/17 04:38:37;;;;;;;;;;;7.90;99.90;;;;;;5046464;28;20114;-60
2023/02/17 04:41:05;;;;;;;21.13;12.35;;;7.90;99.90;;;;;;5047915;28;20424;-60
2023/02/17 04:43:31;;;;;;;17.75;12.57;;;7.90;99.90;;;;;;5044809;28;20120;-61
2023/02/17 04:45:56;;;;;;;;;;;7.90;99.90;;;;;;5028635;28;20484;-61
2023/02/17 04:48:23;;;;;;;19.85;12.40;;;7.90;99.90;;;;;;5045160;28;19916;-59
2023/02/17 04:50:49;;;;;;;20.42;12.85;;;7.90;99.90;;;;;;5046154;28;20040;-60
2023/02/17 04:53:14;;;;;;;;;;;7.90;99.90;;;;;;5043667;28;20877;-59
2023/02/17 04:55:40;;;;;;;19.98;12.45;;;7.90;99.90;;;;;;5045117;28;19928;-59
2023/02/17 04:58:07;;;;;;;19.23;11.70;;;7.90;99.90;;;;;;5045665;28;20639;-57
2023/02/17 05:00:32;;;;;;;18.40;12.43;;;7.90;99.90;;;;;;5042450;28;20130;-61
2023/02/17 05:02:58;;;;;;;;;;;7.90;99.90;;;;;;5045776;28;20040;-61
2023/02/17 05:05:23;;;;;;;16.52;12.15;;;7.90;99.90;;;;;;5045251;28;19928;-61
2023/02/17 05:07:49;;;;;;;17.65;11.77;;;7.90;99.90;;;;;;5045151;28;20029;-60
2023/02/17 05:10:15;;;;;;;;;;;7.90;99.90;;;;;;5044405;28;20041;-61
2023/02/17 05:12:41;;;;;;;18.60;12.65;;;7.90;99.90;;;;;;5045993;28;19920;-61
2023/02/17 05:15:07;;;;;;;;;;;7.90;99.90;;;;;;5042070;28;20055;-61
2023/02/17 05:17:34;;;;;;;17.83;12.80;;;7.90;99.90;;;;;;5045289;28;19927;-59
2023/02/17 05:19:59;;;;;;;16.83;12.15;;;7.90;99.90;;;;;;5042873;28;20033;-62
2023/02/17 05:22:25;;;;;;;;;;;7.90;99.90;;;;;;5047202;28;20047;-62
2023/02/17 05:24:51;;;;;;;18.50;11.65;;;8.00;99.90;;;;;;5042214;28;19921;-60
2023/02/17 05:27:16;;;;;;;19.55;12.23;;;8.00;99.90;;;;;;5047057;28;20041;-60
2023/02/17 05:29:42;;;;;;;;;;;8.00;99.90;;;;;;5043342;28;20036;-59
2023/02/17 05:32:07;;;;;;;17.20;11.50;;;8.00;99.90;;;;;;5046146;28;19923;-61
2023/02/17 05:34:33;;;;;;;16.75;12.18;;;8.00;99.90;;;;;;5042232;28;20621;-55
2023/02/17 05:36:59;;;;;;;20.58;12.85;;;8.00;99.90;;;;;;5044433;28;20207;-59
2023/02/17 05:39:25;;;;;;;18.15;12.45;;;8.00;99.90;;;;;;5043415;28;20048;-60
2023/02/17 05:41:50;;;;;;;;;;;8.00;99.90;;;;;;5044659;28;20091;-60
2023/02/17 05:44:16;;;;;;;17.00;11.88;;;8.00;99.90;;;;;;5043323;28;19920;-60
2023/02/17 05:46:41;;;;;;;;;;;8.00;99.90;;;;;;5044305;28;20048;-59
2023/02/17 05:49:07;;;;;;;16.42;11.40;;;8.00;99.90;;;;;;5043850;28;19916;-60
2023/02/17 05:51:32;;;;;;;;;;;8.00;99.90;;;;;;5045399;28;20378;-61
2023/02/17 05:53:58;;;;;;;20.63;12.68;;;8.00;99.90;;;;;;5043334;28;19927;-61
2023/02/17 05:56:23;;;;;;;16.67;11.93;;;8.00;99.90;;;;;;5041639;28;20065;-60
2023/02/17 05:58:49;;;;;;;;;;;8.00;99.90;;;;;;5042157;28;20143;-59
2023/02/17 06:01:14;;;;;;;14.75;11.02;;;8.00;99.90;;;;;;5043424;28;20020;-57
2023/02/17 06:03:40;;;;;;;15.80;11.50;;;8.00;99.90;;;;;;5043497;28;20037;-60
2023/02/17 06:06:06;;;;;;;19.85;11.57;;;8.00;99.90;;;;;;5044652;28;20041;-61
2023/02/17 06:08:32;;;;;;;14.10;10.52;;;8.00;99.90;;;;;;5043617;28;20040;-59
2023/02/17 06:10:58;;;;;;;16.13;11.07;;;8.00;99.90;;;;;;5044427;28;20112;-60
2023/02/17 06:13:23;;;;;;;;;;;8.10;99.90;;;;;;5043521;28;20124;-59
2023/02/17 06:15:49;;;;;;;15.73;11.15;;;8.00;99.90;;;;;;5042766;28;19979;-61
2023/02/17 06:18:14;;;;;;;15.80;10.27;;;8.10;99.90;;;;;;5041770;28;20052;-61
2023/02/17 06:20:40;;;;;;;14.20;10.48;;;8.00;99.90;;;;;;5043875;28;20051;-61
2023/02/17 06:23:06;;;;;;;14.30;9.98;;;8.10;99.90;;;;;;5043457;28;20049;-60
2023/02/17 06:25:32;;;;;;;17.63;10.63;;;8.10;99.90;;;;;;5045647;28;20381;-60
2023/02/17 06:27:57;;;;;;;;;;;8.10;99.90;;;;;;5044114;28;20040;-60
2023/02/17 06:30:23;;;;;;;15.90;10.35;;;8.10;99.90;;;;;;5043388;28;19924;-60
2023/02/17 06:32:49;;;;;;;16.48;10.70;;;8.10;99.90;;;;;;5045825;28;20709;-60
2023/02/17 06:35:15;;;;;;;15.65;11.00;;;8.10;99.90;;;;;;5040025;28;20393;-59
2023/02/17 06:37:41;;;;;;;16.48;10.88;;;8.10;99.90;;;;;;5044024;28;20047;-61
2023/02/17 06:40:07;;;;;;;;;;;8.10;99.90;;;;;;5043389;28;20408;-61
2023/02/17 06:42:33;;;;;;;15.98;10.13;;;8.10;99.90;;;;;;5044822;28;20352;-60
2023/02/17 06:44:59;;;;;;;16.92;10.77;;;8.10;99.90;;;;;;5040663;28;20045;-61
2023/02/17 06:47:25;;;;;;;16.92;11.25;;;8.10;99.90;;;;;;5045643;28;20264;-63
2023/02/17 06:49:51;;;;;;;;;;;8.10;99.90;;;;;;5042076;28;20517;-61
2023/02/17 06:52:16;;;;;;;15.75;10.52;;;8.10;99.90;;;;;;5044622;28;19982;-58
2023/02/17 06:54:42;;;;;;;;;;;8.20;99.90;;;;;;5042506;28;20128;-61
2023/02/17 06:57:07;;;;;;;15.07;9.88;;;8.20;99.90;;;;;;5045118;28;20295;-60
2023/02/17 06:59:33;;;;;;;;;;;8.20;99.90;;;;;;5039197;28;20037;-61
2023/02/17 07:01:58;;;;;;;14.32;9.77;;;8.20;99.90;;;;;;5044102;28;19917;-60
2023/02/17 07:04:24;;;;;;;16.10;10.10;;;8.20;99.90;;;;;;5043735;28;20455;-60
2023/02/17 07:06:49;;;;;;;;;;;8.20;99.90;;;;;;5043875;28;20139;-60
2023/02/17 07:09:15;;;;;;;12.90;9.07;;;8.20;99.90;;;;;;5041446;28;19963;-61
2023/02/17 07:11:43;;;;;;;16.80;11.25;;;8.20;99.90;;;;;;5043714;28;20037;-61
2023/02/17 07:14:08;;;;;;;15.65;10.63;;;8.20;99.90;;;;;;5041917;28;20048;-61
2023/02/17 07:16:34;;;;;;;;;;;8.20;99.90;;;;;;5044107;28;20044;-61
2023/02/17 07:18:59;;;;;;;14.63;10.10;;;8.20;99.90;;;;;;5041212;28;19955;-59
2023/02/17 07:21:25;;;;;;;;;;;8.20;99.90;;;;;;5044592;28;20076;-61
2023/02/17 07:23:50;;;;;;;14.30;9.82;;;8.20;99.90;;;;;;5042168;28;19917;-61
2023/02/17 07:26:16;;;;;;;13.27;8.65;;;8.20;99.90;;;;;;5043180;28;20172;-59
2023/02/17 07:28:42;;;;;;;13.48;9.10;;;8.20;99.90;;;;;;5045397;28;20381;-62
2023/02/17 07:31:10;;;;;;;12.15;7.85;;;8.20;99.90;;;;;;5046012;28;20037;-62
2023/02/17 07:33:36;;;;;;;16.08;8.95;;;8.20;99.90;;;;;;5044996;28;20033;-58
2023/02/17 07:36:05;;;;;;;;;;;8.20;99.90;;;;;;5047728;28;20040;-61
2023/02/17 07:38:31;;;;;;;15.35;8.07;;;8.20;99.90;;;;;;5047266;28;20556;-59
2023/02/17 07:41:02;;;;;;;;;;;8.20;99.90;;;;;;5047425;28;20036;-60
2023/02/17 07:43:28;;;;;;;13.52;8.60;;;8.20;99.90;;;;;;5043152;28;20792;-57
2023/02/17 07:45:53;;;;;;;;;;;8.20;99.90;;;;;;5046847;28;20101;-62
2023/02/17 07:48:19;;;;;;;12.02;8.02;;;8.20;99.90;;;;;;5046075;28;19928;-60
2023/02/17 07:50:44;;;;;;;;;;;8.20;99.90;;;;;;5045406;28;20155;-59
2023/02/17 07:53:10;;;;;;;11.45;7.82;;;8.20;99.90;;;;;;5045681;28;19927;-61
2023/02/17 07:55:35;;;;;;;13.00;8.35;;;8.30;99.90;;;;;;5078374;28;20033;-60
2023/02/17 07:58:01;;;;;;;;;;;8.20;99.90;;;;;;5047074;28;20596;-61
2023/02/17 08:00:26;;;;;;;11.73;6.20;;;8.20;99.90;;;;;;5044878;28;20398;-63
2023/02/17 08:02:52;;;;;;;;;;;8.20;99.90;;;;;;5046774;28;20037;-59
2023/02/17 08:05:17;;;;;;;12.23;7.35;;;8.20;99.90;;;;;;5044038;28;19959;-61
2023/02/17 08:07:43;;;;;;;;;;;8.20;99.90;;;;;;5046881;28;20496;-58
2023/02/17 08:15:53;;;;;;;16.58;6.82;;;8.20;99.90;;;;;;5011920;28;20049;-60
2023/02/17 08:18:18;;;;;;;;;;;8.30;99.90;;;;;;5045833;28;20439;-60
2023/02/17 08:20:44;;;;;;;9.77;5.97;;;8.30;99.90;;;;;;5046096;28;19917;-57
2023/02/17 08:23:09;;;;;;;;;;;8.30;99.90;;;;;;5046733;28;20037;-60
2023/02/17 08:25:36;;;;;;;8.38;5.40;;;8.40;99.90;;;;;;5046163;28;20015;-60
2023/02/17 08:28:04;;;;;;;7.63;5.70;;;8.40;99.90;;;;;;5043444;28;20051;-60
2023/02/17 08:30:30;;;;;;;7.70;4.95;;;8.40;99.90;;;;;;5045472;28;20032;-61
2023/02/17 08:32:55;;;;;;;;;;;8.40;99.90;;;;;;5046247;28;20376;-61
2023/02/17 08:35:24;;;;;;;6.78;4.93;;;8.50;99.90;;;;;;5045202;28;20091;-60
2023/02/17 08:37:50;;;;;;;7.35;5.20;;;8.50;99.90;;;;;;5046125;28;20041;-61
2023/02/17 08:40:18;;;;;;;6.25;4.65;;;8.60;99.90;;;;;;5044394;28;20048;-59
2023/02/17 08:42:44;;;;;;;5.80;4.50;;;8.60;99.90;;;;;;5047132;28;20437;-61
2023/02/17 08:45:11;;;;;;;;;;;8.70;99.90;;;;;;5044454;28;20040;-58
2023/02/17 08:47:37;;;;;;;7.38;4.57;;;8.70;99.90;;;;;;5045896;28;19921;-60
2023/02/17 08:50:05;;;;;;;;;;;8.70;99.90;;;;;;5044511;28;20036;-57
2023/02/17 08:52:30;;;;;;;6.32;3.70;;;8.70;99.90;;;;;;5045522;28;19943;-60
2023/02/17 08:54:56;;;;;;;;;;;8.80;99.90;;;;;;5042946;28;20041;-60
2023/02/17 08:57:21;;;;;;;5.00;3.55;;;8.90;99.90;;;;;;5048437;28;20418;-61
2023/02/17 08:59:48;;;;;;;4.35;3.28;;;8.90;99.90;;;;;;5045558;28;20049;-60
2023/02/17 09:02:14;;;;;;;4.72;3.50;;;8.90;99.90;;;;;;5046238;28;20047;-60
2023/02/17 09:04:40;;;;;;;6.82;3.50;;;8.90;99.90;;;;;;5043542;28;20098;-61
2023/02/17 09:07:08;;;;;;;;;;;8.90;99.90;;;;;;5046974;28;20041;-60
2023/02/17 09:09:34;;;;;;;4.03;3.03;;;9.00;99.90;;;;;;5043966;28;19970;-58
2023/02/17 09:11:59;;;;;;;;;;;9.00;99.90;;;;;;5047054;28;20488;-60
2023/02/17 09:14:25;;;;;;;5.97;3.08;;;9.00;99.90;;;;;;5043843;28;20436;-59
2023/02/17 09:16:52;;;;;;;4.13;3.03;;;9.10;99.90;;;;;;5045087;28;20037;-57
2023/02/17 09:19:18;;;;;;;4.70;3.25;;;9.10;99.90;;;;;;5045062;28;20041;-59
2023/02/17 09:21:44;;;;;;;6.18;3.38;;;9.10;99.90;;;;;;5047725;28;20059;-61
2023/02/17 09:24:09;;;;;;;;;;;9.10;99.90;;;;;;5044794;28;20448;-59
2023/02/17 09:26:35;;;;;;;5.10;3.60;;;9.10;99.90;;;;;;5045185;28;19924;-61
2023/02/17 09:29:02;;;;;;;;;;;9.20;99.90;;;;;;5045791;28;20033;-62
2023/02/17 09:31:28;;;;;;;6.97;3.88;;;9.20;99.90;;;;;;5041012;28;19916;-61
2023/02/17 09:33:54;;;;;;;;;;;9.20;99.90;;;;;;5044057;28;20534;-60
2023/02/17 09:36:29;;;;;;;6.38;3.70;;;9.20;99.90;;;;;;5044502;28;20591;-59
2023/02/17 09:38:56;;;;;;;6.83;4.60;;;9.30;99.90;;;;;;5044347;28;20040;-58
2023/02/17 09:41:30;;;;;;;7.47;4.50;;;9.30;99.90;;;;;;5045268;28;20489;-60
2023/02/17 09:43:56;;;;;;;6.93;4.75;;;9.30;99.90;;;;;;5043335;28;20051;-60
2023/02/17 09:46:30;;;;;;;;;;;9.30;99.90;;;;;;5044776;28;20508;-58
2023/02/17 09:49:02;;;;;;;7.32;4.72;;;9.30;99.90;;;;;;5040915;28;19925;-59
2023/02/17 09:51:41;;;;;;;6.97;5.35;;;9.30;99.90;;;;;;5041659;28;20122;-59
2023/02/17 09:54:26;;;;;;;7.45;4.90;;;9.40;99.90;;;;;;5043068;28;20045;-61
2023/02/17 09:56:54;;;;;;;7.22;4.82;;;9.30;99.90;;;;;;5043881;28;20037;-60
2023/02/17 09:59:34;;;;;;;9.60;5.60;;;9.40;99.90;;;;;;5043457;28;20041;-59
2023/02/17 10:02:04;;;;;;;6.97;5.25;;;9.40;99.90;;;;;;5042199;28;20109;-60
2023/02/17 10:04:36;;;;;;;7.28;5.70;;;9.50;99.90;;;;;;5041607;28;20128;-57
2023/02/17 10:07:16;;;;;;;8.65;5.80;;;9.50;99.90;;;;;;5044912;28;20044;-60
2023/02/17 10:10:07;;;;;;;10.82;6.40;;;9.60;99.90;;;;;;5042195;28;20041;-62
2023/02/17 10:12:40;;;;;;;8.32;5.47;;;9.60;99.90;;;;;;5043632;28;20057;-55
2023/02/17 10:15:19;;;;;;;7.57;5.63;;;9.60;99.90;;;;;;5055968;28;20029;-59
2023/02/17 10:18:02;;;;;;;10.05;6.20;;;9.70;99.90;;;;;;5044901;28;20551;-60
2023/02/17 10:20:36;;;;;;;7.82;5.38;;;9.70;99.90;;;;;;5043438;28;20071;-58
2023/02/17 10:23:18;;;;;;;8.10;5.45;;;9.80;99.90;;;;;;5041995;28;20049;-58
2023/02/17 10:26:08;;;;;;;8.13;5.50;;;9.90;99.90;;;;;;5043327;28;20068;-60
2023/02/17 10:28:46;;;;;;;8.30;4.95;;;10.00;99.90;;;;;;5044888;28;20652;-57
2023/02/17 10:31:18;;;;;;;8.52;6.05;;;10.10;99.90;;;;;;5045751;28;20536;-60
2023/02/17 10:34:04;;;;;;;10.23;6.88;;;10.10;99.90;;;;;;5045502;28;20527;-57
2023/02/17 10:36:34;;;;;;;8.60;5.53;;;10.10;99.90;;;;;;5043694;28;20048;-60
2023/02/17 10:39:35;;;;;;;9.30;6.15;;;10.30;99.90;;;;;;5043074;28;20123;-54
2023/02/17 10:42:01;;;;;;;9.25;5.65;;;10.30;99.90;;;;;;5012082;28;20076;-59
2023/02/17 10:44:27;;;;;;;8.15;6.25;;;10.40;99.90;;;;;;5041504;28;20041;-60
2023/02/17 10:46:53;;;;;;;;;;;10.40;99.90;;;;;;5044328;28;20416;-61
2023/02/17 10:49:28;;;;;;;10.05;5.72;;;10.40;99.90;;;;;;5043688;28;19916;-61
2023/02/17 10:51:59;;;;;;;10.30;6.50;;;10.50;99.90;;;;;;5043650;28;20037;-61
2023/02/17 10:54:52;;;;;;;9.07;6.25;;;10.50;99.90;;;;;;5040100;28;20548;-60
2023/02/17 10:57:20;;;;;;;9.45;6.50;;;10.60;99.90;;;;;;5044832;28;20087;-59
2023/02/17 10:59:47;;;;;;;9.98;6.25;;;10.60;99.90;;;;;;5042046;28;20041;-60
2023/02/17 11:02:34;;;;;;;9.23;6.03;;;10.60;99.90;;;;;;5043077;28;20106;-59
2023/02/17 11:04:59;;;;;;;8.13;5.80;;;10.60;99.90;;;;;;5040649;28;20048;-59
2023/02/17 11:07:33;;;;;;;;;;;10.60;99.90;;;;;;5043534;28;20040;-60
2023/02/17 11:10:19;;;;;;;9.77;6.20;;;10.60;99.90;;;;;;5041071;28;20027;-60
2023/02/17 11:12:45;;;;;;;10.20;6.45;;;10.70;99.90;;;;;;5043838;28;20047;-59
2023/02/17 11:15:44;;;;;;;10.23;6.10;;;10.70;99.90;;;;;;5041633;28;20041;-61
2023/02/17 11:18:25;;;;;;;9.63;6.18;;;10.70;99.90;;;;;;5042452;28;20056;-60
2023/02/17 11:21:09;;;;;;;11.10;6.25;;;10.80;99.90;;;;;;5043756;28;20101;-61
2023/02/17 11:23:35;;;;;;;7.47;5.63;;;10.90;99.90;;;;;;5041675;28;20043;-59
2023/02/17 11:26:09;;;;;;;7.85;5.80;;;10.90;99.90;;;;;;5058627;28;20141;-58
2023/02/17 11:28:34;;;;;;;7.93;5.75;;;10.90;99.90;;;;;;5041169;28;20106;-59
2023/02/17 11:31:03;;;;;;;;;;;11.00;99.90;;;;;;5042158;28;20041;-61
2023/02/17 11:33:38;;;;;;;7.93;5.70;;;11.10;99.90;;;;;;5038524;28;20475;-59
2023/02/17 11:36:05;;;;;;;6.90;5.00;;;11.10;99.90;;;;;;5041237;28;20491;-58
2023/02/17 11:38:36;;;;;;;7.03;5.13;;;11.20;99.90;;;;;;5042451;28;20083;-59
2023/02/17 11:41:05;;;;;;;6.28;4.60;;;11.30;99.90;;;;;;5044120;28;20076;-59
2023/02/17 11:43:32;;;;;;;7.53;4.38;;;11.30;99.90;;;;;;5042617;28;20045;-60
2023/02/17 11:46:21;;;;;;;6.75;4.78;;;11.30;99.90;;;;;;5058393;28;20052;-56
2023/02/17 11:49:02;;;;;;;6.53;4.00;;;11.30;99.90;;;;;;5041043;28;20033;-60
2023/02/17 11:51:54;;;;;;;6.57;4.40;;;11.30;99.90;;;;;;5044275;28;20032;-60
2023/02/17 11:54:47;;;;;;;7.03;4.15;;;11.30;99.90;;;;;;5041320;28;20072;-61
2023/02/17 11:57:39;;;;;;;6.10;4.63;;;11.30;99.90;;;;;;5044229;28;20045;-60
2023/02/17 12:00:24;;;;;;;5.22;3.42;;;11.30;99.90;;;;;;5040901;28;20033;-58
2023/02/17 12:03:37;;;;;;;6.03;3.95;;;11.30;99.90;;;;;;5041587;28;20143;-60
2023/02/17 12:06:30;;;;;;;5.47;3.83;;;11.40;99.90;;;;;;5043320;28;20053;-59
2023/02/17 12:09:22;;;;;;;7.38;4.38;;;11.40;99.90;;;;;;5041678;28;20036;-60
2023/02/17 12:12:03;;;;;;;6.18;4.10;;;11.50;99.90;;;;;;5041596;28;20083;-60
2023/02/17 12:14:48;;;;;;;6.35;4.13;;;11.50;99.90;;;;;;5042348;28;20039;-58
2023/02/17 12:17:23;;;;;;;4.63;3.35;;;11.50;99.90;;;;;;5048435;28;20129;-59
2023/02/17 12:20:19;;;;;;;4.57;3.60;;;11.50;99.90;;;;;;5044327;28;20086;-60
2023/02/17 12:23:14;;;;;;;5.90;3.42;;;11.50;99.90;;;;;;5047419;28;20043;-60
2023/02/17 12:25:49;;;;;;;5.53;3.53;;;11.60;99.90;;;;;;5061589;28;20036;-58
2023/02/17 12:28:29;;;;;;;5.07;3.90;;;11.60;99.90;;;;;;5045433;28;20074;-60
2023/02/17 12:31:09;;;;;;;4.55;3.30;;;11.80;99.90;;;;;;5045413;28;20090;-60
2023/02/17 12:33:55;;;;;;;8.05;3.47;;;11.80;99.90;;;;;;5042791;28;20040;-61
2023/02/17 12:36:28;;;;;;;6.00;3.75;;;11.90;99.90;;;;;;5045263;28;20570;-61
2023/02/17 12:38:59;;;;;;;7.75;3.92;;;11.90;99.90;;;;;;5045309;28;20047;-61
2023/02/17 12:41:33;;;;;;;6.50;3.60;;;11.90;99.90;;;;;;5045809;28;20536;-59
2023/02/17 12:44:04;;;;;;;6.43;3.33;;;12.00;99.90;;;;;;5045354;28;20041;-61
2023/02/17 12:46:37;;;;;;;6.53;3.50;;;12.10;99.90;;;;;;5046117;28;20041;-60
2023/02/17 12:49:11;;;;;;;7.38;3.30;;;12.10;99.90;;;;;;5043994;28;20545;-60
2023/02/17 12:51:39;;;;;;;5.53;3.17;;;12.10;99.90;;;;;;5045304;28;20040;-59
2023/02/17 12:54:16;;;;;;;3.92;3.17;;;12.20;99.90;;;;;;5044762;28;20128;-60
2023/02/17 12:57:03;;;;;;;6.20;3.60;;;12.20;99.90;;;;;;5046024;28;20037;-57
2023/02/17 12:59:28;;;;;;;5.07;3.00;;;12.30;99.90;;;;;;5044219;28;20082;-60
2023/02/17 13:02:05;;;;;;;;;;;12.30;99.90;;;;;;5045193;28;20061;-61
2023/02/17 13:04:32;;;;;;;6.25;3.13;;;12.30;99.90;;;;;;5042917;28;19927;-61
2023/02/17 13:07:42;;;;;;;4.95;3.40;;;12.40;99.90;;;;;;5045945;28;20859;-61
2023/02/17 13:10:29;;;;;;;4.50;2.90;;;12.40;99.90;;;;;;5039289;28;20045;-61
2023/02/17 13:12:57;;;;;;;;;;;12.40;99.90;;;;;;5044203;28;20032;-61
2023/02/17 13:15:33;;;;;;;5.38;3.00;;;12.30;99.90;;;;;;5043716;28;19963;-59
2023/02/17 13:18:11;;;;;;;6.25;3.38;;;12.20;99.90;;;;;;5043188;28;20037;-61
2023/02/17 13:20:51;;;;;;;4.07;3.08;;;12.20;99.90;;;;;;5045395;28;20083;-57
2023/02/17 13:23:26;;;;;;;5.43;3.22;;;12.10;99.90;;;;;;5044075;28;20032;-59
2023/02/17 13:26:06;;;;;;;4.88;3.47;;;12.10;99.90;;;;;;5045616;28;20136;-59
2023/02/17 13:28:37;;;;;;;4.90;3.33;;;12.00;99.90;;;;;;5043067;28;20052;-58
2023/02/17 13:31:18;;;;;;;5.18;3.10;;;12.00;99.90;;;;;;5041300;28;20903;-57